OPLA

Alama Iqbal International Airport

Lahore, Pakistan
TAF OPLA 141545Z 1418/1524 VRB02KT 4000 FU NSC TX21/1510Z TN05/1501Z TEMPO 1501/1505 1000 BR BECMG 1505/1507 31004KT 2500 FU FM15070031005KT 4000 FU NSC FM151300 VRB02KT 3000 FU NSC
Issued Valid From Valid To
Dec-14 @ 15:45 UTC
(6 hours ago)
Dec-14 @ 18:00 UTC
(4 hours ago)
Dec-16 @ 00:00 UTC
(-1 days ago)
Dec-14 @ 18:00 to Dec-15 @ 05:00
TAF OPLA 141545Z 1418/1524 VRB02KT 4000 FU NSC TX21/1510Z TN05/1501Z
Wind Visibility Clouds Conditions
Variable at 2 knots 4,007 meters
  • No significant clouds
  • Smoke
Temporary Dec-15 @ 01:00 to Dec-15 @ 05:00
TEMPO 1501/1505 1000 BR
Visibility Conditions
998 meters
  • Mist
Becoming Dec-15 @ 05:00 to Dec-15 @ 13:00
BECMG 1505/1507 31004KT 2500 FU
Wind Visibility Clouds Conditions
310° at 4 knots 2,494 meters
  • No significant clouds
  • Smoke
From Dec-15 @ 13:00 to Dec-16 @ 00:00
FM151300 VRB02KT 3000 FU NSC
Wind Visibility Clouds Conditions
Variable at 2 knots 2,993 meters
  • No significant clouds
  • Smoke
TAF OPLA 141545Z 1418/1524 VRB02KT 4000 FU NSC TX21/1510Z TN05/1501Z TEMPO 1501/1505 1000 BR BECMG 1505/1507 31004KT 2500 FU FM15070031005KT 4000 FU NSC FM151300 VRB02KT 3000 FU NSC
Issued Dec-14 @ 15:45 UTC
(6 hours ago)
Valid From Dec-14 @ 18:00 UTC
(4 hours ago)
Valid To Dec-16 @ 00:00 UTC
(-1 days ago)
Dec-14 @ 18:00 - Dec-15 @ 05:00
Wind Visibility
Variable at 2 knots 4,007 meters
Clouds
  • No significant clouds
Conditions
  • Smoke
Temporary Dec-15 @ 01:00 - Dec-15 @ 05:00
Conditions
  • Mist
Becoming Dec-15 @ 05:00 - Dec-15 @ 13:00
Wind Visibility
310° at 4 knots 2,494 meters
Clouds
  • No significant clouds
Conditions
  • Smoke
From Dec-15 @ 13:00 - Dec-16 @ 00:00
Wind Visibility
Variable at 2 knots 2,993 meters
Clouds
  • No significant clouds
Conditions
  • Smoke